Time;durP1;ratioP1;P1;durP2;ratioP2;P2;SDS_P1;SDS_P2;PMS_P1;PMS_P2;Temp;Humidity;BMP_temperature;BMP_pressure;BME280_temperature;BME280_humidity;BME280_pressure;Samples;Min_cycle;Max_cycle;Signal;HPM_P1;HPM_P2
2022/08/09 00:01:37;;;;;;;10.52;8.32;;;;;;;;;;5030338;28;20481;-50
2022/08/09 00:04:04;;;;;;;13.50;7.60;;;23.90;99.90;;;;;;5030341;28;20141;-50
2022/08/09 00:06:30;;;;;;;13.63;8.90;;;23.80;99.90;;;;;;5031948;28;20042;-49
2022/08/09 00:08:56;;;;;;;14.90;9.85;;;23.80;99.90;;;;;;5013949;28;20049;-50
2022/08/09 00:11:22;;;;;;;11.93;8.75;;;23.70;99.90;;;;;;5028012;28;20043;-55
2022/08/09 00:13:48;;;;;;;9.73;8.05;;;23.70;99.90;;;;;;5035126;28;20505;-50
2022/08/09 00:16:14;;;;;;;10.93;9.82;;;23.70;99.90;;;;;;5024371;28;20049;-55
2022/08/09 00:18:40;;;;;;;9.65;8.45;;;23.50;99.90;;;;;;5023420;28;20034;-51
2022/08/09 00:21:07;;;;;;;13.02;8.73;;;23.40;99.90;;;;;;5024028;28;20033;-47
2022/08/09 00:23:33;;;;;;;10.32;8.15;;;;;;;;;;5020472;28;20033;-51
2022/08/09 00:26:00;;;;;;;12.00;9.68;;;;;;;;;;5026648;28;20037;-53
2022/08/09 00:28:26;;;;;;;12.52;9.48;;;;;;;;;;5018158;28;20489;-54
2022/08/09 00:30:52;;;;;;;11.68;10.57;;;;;;;;;;5039781;28;20041;-50
2022/08/09 00:33:19;;;;;;;12.63;9.55;;;;;;;;;;5017109;28;20036;-55
2022/08/09 00:35:45;;;;;;;12.85;9.90;;;;;;;;;;5024044;28;20034;-56
2022/08/09 00:38:12;;;;;;;13.48;10.18;;;22.80;99.90;;;;;;5026024;28;20029;-50
2022/08/09 00:40:42;;;;;;;14.27;9.75;;;22.80;99.90;;;;;;5026952;28;20788;-53
2022/08/09 00:43:08;;;;;;;11.57;9.77;;;22.70;99.90;;;;;;5020776;28;20095;-53
2022/08/09 00:45:34;;;;;;;12.15;10.75;;;22.70;99.90;;;;;;5029789;28;20033;-50
2022/08/09 00:48:00;;;;;;;12.18;10.73;;;22.60;99.90;;;;;;5020300;28;20032;-52
2022/08/09 00:50:26;;;;;;;13.15;11.77;;;22.70;99.90;;;;;;5023748;28;20535;-54
2022/08/09 00:52:52;;;;;;;13.07;11.23;;;22.60;99.90;;;;;;5003158;28;20100;-50
2022/08/09 00:55:18;;;;;;;23.17;10.27;;;22.60;99.90;;;;;;5021735;28;20033;-54
2022/08/09 00:57:45;;;;;;;12.70;10.70;;;22.50;99.90;;;;;;5029571;28;20037;-48
2022/08/09 01:00:11;;;;;;;13.35;9.80;;;22.50;99.90;;;;;;5017064;28;20117;-50
2022/08/09 01:02:47;;;;;;;11.00;9.00;;;22.40;99.90;;;;;;5026165;28;20025;-50
2022/08/09 01:05:30;;;;;;;11.55;10.43;;;22.30;99.90;;;;;;5009292;28;20046;-52
2022/08/09 01:08:12;;;;;;;12.48;10.35;;;22.40;99.90;;;;;;5022632;28;20032;-49
2022/08/09 01:10:52;;;;;;;11.38;10.20;;;22.30;99.90;;;;;;5017610;28;20045;-53
2022/08/09 01:13:45;;;;;;;13.68;10.75;;;22.30;99.90;;;;;;5022887;28;20033;-55
2022/08/09 01:16:12;;;;;;;11.13;9.23;;;22.30;99.90;;;;;;5023449;28;20117;-53
2022/08/09 01:18:44;;;;;;;14.88;11.25;;;22.20;99.90;;;;;;5025806;28;20064;-50
2022/08/09 01:21:43;;;;;;;14.48;10.63;;;22.30;99.90;;;;;;5025054;28;20053;-48
2022/08/09 01:24:15;;;;;;;9.38;8.40;;;22.20;99.90;;;;;;5027452;28;20435;-53
2022/08/09 01:26:54;;;;;;;14.10;10.60;;;22.20;99.90;;;;;;5028802;28;20154;-54
2022/08/09 01:29:36;;;;;;;10.27;8.60;;;22.10;99.90;;;;;;5026186;28;20046;-49
2022/08/09 01:32:04;;;;;;;9.35;8.00;;;;;;;;;;5026550;28;20176;-54
2022/08/09 01:34:31;;;;;;;10.50;9.50;;;23.80;99.90;;;;;;5020227;28;20064;-53
2022/08/09 01:37:00;;;;;;;11.63;10.35;;;21.90;99.90;;;;;;4995866;28;20042;-48
2022/08/09 01:39:29;;;;;;;12.27;11.02;;;21.90;99.90;;;;;;4995856;28;20048;-53
2022/08/09 01:41:56;;;;;;;11.90;10.55;;;21.80;99.90;;;;;;5028769;28;20435;-50
2022/08/09 01:44:23;;;;;;;10.88;9.68;;;21.70;99.90;;;;;;5028522;28;20508;-48
2022/08/09 01:46:50;;;;;;;12.43;11.13;;;;;;;;;;5028810;28;20457;-53
2022/08/09 01:49:19;;;;;;;11.60;9.77;;;21.70;99.90;;;;;;5029316;28;20112;-53
2022/08/09 01:51:48;;;;;;;15.82;10.52;;;21.70;99.90;;;;;;5023079;28;20034;-55
2022/08/09 01:54:16;;;;;;;11.18;9.95;;;21.70;99.90;;;;;;5023178;28;20034;-53
2022/08/09 01:56:45;;;;;;;12.73;10.70;;;21.60;99.90;;;;;;5023376;28;20042;-52
2022/08/09 01:59:16;;;;;;;11.55;10.45;;;21.70;99.90;;;;;;5017527;28;20030;-53
2022/08/09 02:01:47;;;;;;;11.37;10.17;;;21.70;99.90;;;;;;5017270;28;20482;-47
2022/08/09 02:04:14;;;;;;;12.35;11.05;;;21.80;99.90;;;;;;5024271;28;20790;-50
2022/08/09 02:09:28;;;;;;;14.50;11.88;;;;;;;;;;5028336;28;20551;-53
2022/08/09 02:11:54;;;;;;;10.75;9.65;;;;;;;;;;5025209;28;20029;-51
2022/08/09 02:14:23;;;;;;;14.32;11.43;;;21.80;99.90;;;;;;5024631;28;20129;-49
2022/08/09 02:16:50;;;;;;;13.68;11.60;;;21.90;99.90;;;;;;5025098;28;20037;-53
2022/08/09 02:19:16;;;;;;;11.23;9.93;;;;;;;;;;5023976;28;20053;-51
2022/08/09 02:21:45;;;;;;;14.73;11.48;;;;;;;;;;5021495;28;20037;-54
2022/08/09 02:24:16;;;;;;;14.45;12.55;;;;;;;;;;5026598;28;20465;-50
2022/08/09 02:26:44;;;;;;;13.13;11.73;;;21.80;99.90;;;;;;5023127;28;20121;-50
2022/08/09 02:29:26;;;;;;;13.38;12.00;;;21.80;99.90;;;;;;5029623;28;20045;-54
2022/08/09 02:31:55;;;;;;;;;;;21.80;99.90;;;;;;5022579;28;20076;-56
2022/08/09 02:34:27;;;;;;;10.82;9.73;;;21.80;99.90;;;;;;5020647;28;19909;-52
2022/08/09 02:36:57;;;;;;;12.80;11.48;;;21.80;99.90;;;;;;5030798;28;20025;-55
2022/08/09 02:39:28;;;;;;;12.23;11.02;;;21.80;99.90;;;;;;5026399;28;20481;-53
2022/08/09 02:42:02;;;;;;;12.17;10.87;;;21.80;99.90;;;;;;5025589;28;20044;-50
2022/08/09 02:44:36;;;;;;;13.30;11.98;;;21.70;99.90;;;;;;5028952;28;20033;-54
2022/08/09 02:47:07;;;;;;;14.15;11.32;;;21.70;99.90;;;;;;5039725;28;20034;-52
2022/08/09 02:49:44;;;;;;;14.93;11.88;;;21.70;99.90;;;;;;5013883;28;20378;-52
2022/08/09 02:52:15;;;;;;;13.95;12.05;;;21.80;99.90;;;;;;5032070;28;20025;-50
2022/08/09 02:54:43;;;;;;;13.57;11.25;;;21.70;99.90;;;;;;5026767;28;20673;-50
2022/08/09 02:57:10;;;;;;;11.32;9.63;;;21.70;99.90;;;;;;5013639;28;20085;-51
2022/08/09 02:59:37;;;;;;;16.05;11.23;;;21.70;99.90;;;;;;5028144;28;20508;-53
2022/08/09 03:02:07;;;;;;;11.85;10.25;;;21.60;99.90;;;;;;5020283;28;20018;-50
2022/08/09 03:04:35;;;;;;;12.90;11.05;;;21.60;99.90;;;;;;5029121;28;20112;-53
2022/08/09 03:07:03;;;;;;;11.95;10.70;;;;;;;;;;5023221;28;20034;-53
2022/08/09 03:09:30;;;;;;;12.40;11.18;;;;;;;;;;5024560;28;20037;-53
2022/08/09 03:11:57;;;;;;;11.93;10.25;;;;;;;;;;5020553;28;20034;-50
2022/08/09 03:14:24;;;;;;;15.25;11.25;;;21.40;99.90;;;;;;5025894;28;20127;-52
2022/08/09 03:16:51;;;;;;;11.23;9.63;;;21.40;99.90;;;;;;5021356;28;20036;-50
2022/08/09 03:19:18;;;;;;;21.55;11.65;;;21.40;99.90;;;;;;5022533;28;20091;-52
2022/08/09 03:21:49;;;;;;;11.07;9.02;;;21.40;99.90;;;;;;5018429;28;20504;-49
2022/08/09 03:24:17;;;;;;;16.90;9.63;;;21.30;99.90;;;;;;5020347;28;20448;-49
2022/08/09 03:26:46;;;;;;;11.60;9.95;;;21.20;99.90;;;;;;5022114;28;20032;-55
2022/08/09 03:29:14;;;;;;;13.85;10.77;;;21.20;99.90;;;;;;5029132;28;20083;-51
2022/08/09 03:31:41;;;;;;;9.88;8.88;;;21.20;99.90;;;;;;5023522;28;20069;-56
2022/08/09 03:34:09;;;;;;;11.45;9.88;;;21.20;99.90;;;;;;5019200;28;20428;-53
2022/08/09 03:36:38;;;;;;;10.93;8.98;;;21.40;99.90;;;;;;5021270;28;20036;-50
2022/08/09 03:39:05;;;;;;;11.60;9.07;;;21.40;99.90;;;;;;4991304;28;20099;-54
2022/08/09 03:41:31;;;;;;;12.13;10.00;;;21.40;99.90;;;;;;5024319;28;20444;-53
2022/08/09 03:43:57;;;;;;;11.23;8.38;;;21.30;99.90;;;;;;5023573;28;20048;-47
2022/08/09 03:46:23;;;;;;;10.35;9.07;;;;;;;;;;5024849;28;20022;-50
2022/08/09 03:48:51;;;;;;;11.00;9.65;;;;;;;;;;5023137;28;20524;-49
2022/08/09 03:51:19;;;;;;;10.98;8.60;;;;;;;;;;5019278;28;20044;-50
2022/08/09 03:53:47;;;;;;;11.40;10.30;;;;;;;;;;5024025;28;20104;-51
2022/08/09 03:56:13;;;;;;;13.98;8.48;;;21.20;99.90;;;;;;5018835;28;20042;-49
2022/08/09 03:58:42;;;;;;;11.52;8.32;;;21.20;99.90;;;;;;5024716;28;20029;-58
2022/08/09 04:01:08;;;;;;;10.13;9.13;;;21.20;99.90;;;;;;5026962;28;20068;-56
2022/08/09 04:03:34;;;;;;;10.90;8.23;;;21.10;99.90;;;;;;5029054;28;20469;-53
2022/08/09 04:06:00;;;;;;;10.45;9.45;;;21.10;99.90;;;;;;5028322;28;20055;-54
2022/08/09 04:08:26;;;;;;;11.63;9.10;;;21.10;99.90;;;;;;5033926;28;20389;-50
2022/08/09 04:10:52;;;;;;;9.00;8.10;;;21.10;99.90;;;;;;5018463;28;20045;-50
2022/08/09 04:13:17;;;;;;;10.93;8.45;;;21.10;99.90;;;;;;5027519;28;20124;-49
2022/08/09 04:15:43;;;;;;;9.50;8.45;;;21.30;99.90;;;;;;5020288;28;20045;-52
2022/08/09 04:18:10;;;;;;;12.63;9.00;;;21.20;99.90;;;;;;5030755;28;20040;-50
2022/08/09 04:20:36;;;;;;;9.70;8.75;;;21.20;99.90;;;;;;5024943;28;20176;-50
2022/08/09 04:23:02;;;;;;;11.52;10.32;;;21.30;99.90;;;;;;5013272;28;20120;-47
2022/08/09 04:25:28;;;;;;;13.23;10.05;;;21.30;99.90;;;;;;5018602;28;20542;-53
2022/08/09 04:27:55;;;;;;;11.95;9.73;;;21.50;99.90;;;;;;5024250;28;20117;-54
2022/08/09 04:30:22;;;;;;;9.88;8.93;;;21.50;99.90;;;;;;5022651;28;20050;-53
2022/08/09 04:32:48;;;;;;;10.43;8.30;;;21.50;99.90;;;;;;5031677;28;20425;-48
2022/08/09 04:35:14;;;;;;;10.57;9.35;;;21.40;99.90;;;;;;5027097;28;20091;-49
2022/08/09 04:37:40;;;;;;;8.65;6.93;;;21.40;99.90;;;;;;5023139;28;20119;-50
2022/08/09 04:40:07;;;;;;;12.27;8.38;;;21.50;99.90;;;;;;5018628;28;20077;-51
2022/08/09 04:42:34;;;;;;;8.35;7.45;;;21.50;99.90;;;;;;5027638;28;20041;-48
2022/08/09 04:45:00;;;;;;;8.80;7.53;;;21.50;99.90;;;;;;5018824;28;20023;-49
2022/08/09 04:47:28;;;;;;;10.40;8.45;;;21.60;99.90;;;;;;5019288;28;20029;-50
2022/08/09 04:49:54;;;;;;;8.38;7.13;;;21.50;99.90;;;;;;5027832;28;20036;-50
2022/08/09 04:52:26;;;;;;;7.72;6.97;;;21.50;99.90;;;;;;5005188;28;20038;-50
2022/08/09 04:54:52;;;;;;;6.47;5.72;;;21.40;99.90;;;;;;5021961;28;20034;-53
2022/08/09 04:57:19;;;;;;;13.02;7.13;;;21.40;99.90;;;;;;5019209;28;20145;-56
2022/08/09 04:59:45;;;;;;;8.98;7.05;;;21.50;99.90;;;;;;5000611;28;20088;-53
2022/08/09 05:02:12;;;;;;;8.07;6.45;;;21.50;99.90;;;;;;5010040;28;20033;-51
2022/08/09 05:04:39;;;;;;;8.88;7.50;;;21.70;99.90;;;;;;5023300;28;20041;-46
2022/08/09 05:07:04;;;;;;;7.10;6.40;;;21.70;99.90;;;;;;5015105;28;20362;-54
2022/08/09 05:09:30;;;;;;;9.65;6.60;;;21.70;99.90;;;;;;5016974;28;20040;-52
2022/08/09 05:11:57;;;;;;;9.60;5.97;;;21.70;99.90;;;;;;5023349;28;20104;-49
2022/08/09 05:14:23;;;;;;;7.85;6.53;;;21.60;99.90;;;;;;5019843;28;20144;-51
2022/08/09 05:16:52;;;;;;;9.05;6.88;;;21.70;99.90;;;;;;4982402;28;20117;-52
2022/08/09 05:19:20;;;;;;;9.32;6.68;;;21.70;99.90;;;;;;4977550;28;20041;-49
2022/08/09 05:21:49;;;;;;;9.68;6.85;;;21.70;99.90;;;;;;5008331;28;20040;-53
2022/08/09 05:24:16;;;;;;;7.28;6.50;;;;;;;;;;4993801;28;20049;-52
2022/08/09 05:26:42;;;;;;;8.75;5.97;;;;;;;;;;5009697;28;20048;-49
2022/08/09 05:29:08;;;;;;;7.22;6.13;;;;;;;;;;5024040;28;20533;-52
2022/08/09 05:31:34;;;;;;;9.60;6.03;;;;;;;;;;5017795;28;20075;-56
2022/08/09 05:34:00;;;;;;;6.97;6.28;;;;;;;;;;5023182;28;20137;-53
2022/08/09 05:36:26;;;;;;;9.30;6.78;;;;;;;;;;5022364;28;20058;-56
2022/08/09 05:38:52;;;;;;;8.63;6.45;;;;;;;;;;5021592;28;20033;-55
2022/08/09 05:41:18;;;;;;;8.13;6.60;;;;;;;;;;5020795;28;20092;-55
2022/08/09 05:43:44;;;;;;;7.78;6.97;;;;;;;;;;5021737;28;20037;-52
2022/08/09 05:46:12;;;;;;;6.85;5.72;;;;;;;;;;5020035;28;20056;-50
2022/08/09 05:48:38;;;;;;;8.48;6.88;;;;;;;;;;5021865;28;20153;-53
2022/08/09 05:51:05;;;;;;;10.10;7.35;;;;;;;;;;5022547;28;20037;-50
2022/08/09 05:53:31;;;;;;;10.65;7.22;;;;;;;;;;5024937;28;20112;-57
2022/08/09 05:55:57;;;;;;;8.02;6.97;;;;;;;;;;5024795;28;20124;-52
2022/08/09 05:58:23;;;;;;;9.50;6.43;;;;;;;;;;5024441;28;20092;-56
2022/08/09 06:00:49;;;;;;;7.35;6.65;;;;;;;;;;5026650;28;20112;-51
2022/08/09 06:03:16;;;;;;;8.27;6.18;;;;;;;;;;5023252;28;20026;-55
2022/08/09 06:05:42;;;;;;;9.43;6.57;;;22.80;99.90;;;;;;5022255;28;20022;-53
2022/08/09 06:08:08;;;;;;;8.38;6.70;;;22.80;99.90;;;;;;5020827;28;20038;-51
2022/08/09 06:10:36;;;;;;;7.85;5.97;;;22.70;99.90;;;;;;5028651;28;20464;-53
2022/08/09 06:13:10;;;;;;;7.18;6.43;;;;;;;;;;5024793;28;20033;-60
2022/08/09 06:15:36;;;;;;;6.88;6.20;;;23.30;99.90;;;;;;5026190;28;20029;-54
2022/08/09 06:18:02;;;;;;;9.48;6.20;;;23.30;99.90;;;;;;5025374;28;20432;-51
2022/08/09 06:20:28;;;;;;;7.95;7.10;;;23.20;99.90;;;;;;5026880;28;20573;-52
2022/08/09 06:22:54;;;;;;;8.85;6.50;;;22.80;99.90;;;;;;5020537;28;20543;-52
2022/08/09 06:25:20;;;;;;;7.97;7.15;;;22.90;99.90;;;;;;5028887;28;20036;-51
2022/08/09 06:27:46;;;;;;;6.75;6.05;;;22.90;99.90;;;;;;5019731;28;20038;-53
2022/08/09 06:30:12;;;;;;;8.13;6.35;;;22.90;99.90;;;;;;5022285;28;20566;-51
2022/08/09 06:32:37;;;;;;;6.85;6.22;;;22.80;99.90;;;;;;5021306;28;20568;-52
2022/08/09 06:35:04;;;;;;;8.82;6.65;;;22.90;99.90;;;;;;5020073;28;20030;-52
2022/08/09 06:37:30;;;;;;;7.90;6.20;;;22.90;99.90;;;;;;5032654;28;20029;-52
2022/08/09 06:39:55;;;;;;;7.47;6.72;;;23.10;99.90;;;;;;5028472;28;20033;-52
2022/08/09 06:42:21;;;;;;;7.28;6.53;;;23.20;99.90;;;;;;5026731;28;20030;-56
2022/08/09 06:44:48;;;;;;;9.35;5.90;;;23.30;99.90;;;;;;5025702;28;20033;-56
2022/08/09 06:47:14;;;;;;;7.38;6.65;;;23.10;99.90;;;;;;5017366;28;20030;-53
2022/08/09 06:49:40;;;;;;;7.53;6.35;;;23.30;99.90;;;;;;5024190;28;20033;-51
2022/08/09 06:52:06;;;;;;;9.77;6.28;;;23.60;99.90;;;;;;5023062;28;20037;-53
2022/08/09 06:54:32;;;;;;;7.93;5.22;;;23.60;99.90;;;;;;5017493;28;20037;-53
2022/08/09 06:56:58;;;;;;;7.47;6.35;;;23.50;99.90;;;;;;5026730;28;20044;-53
2022/08/09 06:59:24;;;;;;;7.93;6.65;;;23.50;99.90;;;;;;5019401;28;20131;-59
2022/08/09 07:01:49;;;;;;;8.48;6.63;;;23.50;99.90;;;;;;5028380;28;20457;-54
2022/08/09 07:04:15;;;;;;;9.90;5.97;;;23.40;99.90;;;;;;5020558;28;20370;-54
2022/08/09 07:06:41;;;;;;;7.75;6.10;;;23.50;99.90;;;;;;5023282;28;20036;-55
2022/08/09 07:09:07;;;;;;;7.63;6.43;;;23.50;99.90;;;;;;5031432;28;20040;-52
2022/08/09 07:11:33;;;;;;;8.15;6.72;;;23.30;99.90;;;;;;5028832;28;20056;-54
2022/08/09 07:13:59;;;;;;;8.18;6.50;;;23.40;99.90;;;;;;5020731;28;20041;-53
2022/08/09 07:16:25;;;;;;;7.63;6.35;;;23.30;99.90;;;;;;5026474;28;20160;-51
2022/08/09 07:18:52;;;;;;;9.20;6.53;;;23.60;99.90;;;;;;5030560;28;20091;-52
2022/08/09 07:21:18;;;;;;;8.27;6.75;;;23.70;99.90;;;;;;5029380;28;20037;-49
2022/08/09 07:23:43;;;;;;;6.50;5.90;;;23.60;99.90;;;;;;4981268;28;20136;-55
2022/08/09 07:26:09;;;;;;;8.13;7.32;;;23.60;99.90;;;;;;5017431;28;20128;-50
2022/08/09 07:28:35;;;;;;;8.50;7.60;;;23.60;99.90;;;;;;5026971;28;20030;-51
2022/08/09 07:31:03;;;;;;;7.43;6.50;;;23.50;99.90;;;;;;5023118;28;20465;-56
2022/08/09 07:33:30;;;;;;;8.07;6.50;;;23.50;99.90;;;;;;5024184;28;20025;-54
2022/08/09 07:35:56;;;;;;;8.93;6.32;;;23.60;99.90;;;;;;5022223;28;20075;-53
2022/08/09 07:38:21;;;;;;;7.97;6.07;;;23.40;99.90;;;;;;5023716;28;20042;-55
2022/08/09 07:40:47;;;;;;;7.85;6.60;;;23.50;99.90;;;;;;5021813;28;20059;-55
2022/08/09 07:43:13;;;;;;;8.90;7.15;;;23.40;99.90;;;;;;5022746;28;20053;-54
2022/08/09 07:45:39;;;;;;;12.90;7.57;;;;;;;;;;5021383;28;20053;-62
2022/08/09 07:48:06;;;;;;;9.18;6.97;;;23.50;99.90;;;;;;5022358;28;20065;-53
2022/08/09 07:50:34;;;;;;;9.13;7.13;;;;;;;;;;5035460;28;20033;-55
2022/08/09 07:53:00;;;;;;;13.57;7.10;;;23.70;99.90;;;;;;5025287;28;20071;-53
2022/08/09 07:55:26;;;;;;;8.55;6.78;;;;;;;;;;5021307;28;20069;-54
2022/08/09 07:57:52;;;;;;;7.82;6.95;;;;;;;;;;5023852;28;20055;-54
2022/08/09 08:00:19;;;;;;;9.50;6.65;;;;;;;;;;5020725;28;20041;-54
2022/08/09 08:02:47;;;;;;;10.45;7.00;;;24.40;99.90;;;;;;5026208;28;20384;-60
2022/08/09 08:05:14;;;;;;;7.05;6.45;;;24.70;99.90;;;;;;5024045;28;20185;-56
2022/08/09 08:07:40;;;;;;;8.65;7.20;;;24.80;99.90;;;;;;5011656;28;20057;-51
2022/08/09 08:10:07;;;;;;;7.82;6.30;;;24.80;99.90;;;;;;5001310;28;20045;-53
2022/08/09 08:12:33;;;;;;;8.27;7.47;;;25.20;99.90;;;;;;5024090;28;20562;-52
2022/08/09 08:14:58;;;;;;;10.40;7.00;;;25.20;99.90;;;;;;5023766;28;20040;-55
2022/08/09 08:17:24;;;;;;;9.77;6.93;;;25.20;99.90;;;;;;5020097;28;20045;-53
2022/08/09 08:19:50;;;;;;;9.65;7.32;;;25.40;99.90;;;;;;5019586;28;20049;-56
2022/08/09 08:22:16;;;;;;;11.55;7.35;;;25.40;99.90;;;;;;5019700;28;20056;-55
2022/08/09 08:24:41;;;;;;;9.50;7.57;;;25.30;99.90;;;;;;5019415;28;20029;-53
2022/08/09 08:27:08;;;;;;;7.70;6.85;;;25.10;99.90;;;;;;5021465;28;20061;-54
2022/08/09 08:29:33;;;;;;;14.50;7.43;;;25.40;99.90;;;;;;5024380;28;20808;-50
2022/08/09 08:31:59;;;;;;;9.68;6.95;;;25.40;99.90;;;;;;4977133;28;20045;-52
2022/08/09 08:34:25;;;;;;;9.98;7.35;;;25.30;99.90;;;;;;5014473;28;20040;-52
2022/08/09 08:36:51;;;;;;;10.20;7.13;;;25.30;99.90;;;;;;4991582;28;20029;-52
2022/08/09 08:39:16;;;;;;;7.47;6.30;;;25.50;99.90;;;;;;5004435;28;20048;-56
2022/08/09 08:41:44;;;;;;;8.30;7.40;;;25.70;99.90;;;;;;5020681;28;20056;-53
2022/08/09 08:44:12;;;;;;;10.23;7.50;;;25.80;99.90;;;;;;5022885;28;20503;-53
2022/08/09 08:46:41;;;;;;;8.25;7.10;;;25.60;99.90;;;;;;5024555;28;20594;-52
2022/08/09 08:49:07;;;;;;;8.23;7.40;;;26.10;99.90;;;;;;5020077;28;20186;-57
2022/08/09 08:51:33;;;;;;;8.75;7.20;;;26.40;99.90;;;;;;5023239;28;20457;-58
2022/08/09 08:54:06;;;;;;;8.05;5.38;;;26.30;99.90;;;;;;5038093;28;20405;-57
2022/08/09 08:56:34;;;;;;;8.55;7.45;;;26.10;99.90;;;;;;5019415;28;20041;-51
2022/08/09 08:59:03;;;;;;;11.60;7.90;;;26.10;99.90;;;;;;5032516;28;20041;-55
2022/08/09 09:01:29;;;;;;;8.68;7.72;;;26.20;99.90;;;;;;5025504;28;20436;-51
2022/08/09 09:03:55;;;;;;;8.60;7.57;;;26.10;99.90;;;;;;5015987;28;20129;-54
2022/08/09 09:06:22;;;;;;;8.68;6.70;;;;;;;;;;5021139;28;20033;-51
2022/08/09 09:08:49;;;;;;;8.48;6.72;;;;;;;;;;5025883;28;20045;-55
2022/08/09 09:11:15;;;;;;;8.10;7.30;;;;;;;;;;5038916;28;20042;-60
2022/08/09 09:13:43;;;;;;;8.68;7.88;;;27.50;99.90;;;;;;5023085;28;20037;-56
2022/08/09 09:16:09;;;;;;;9.52;7.00;;;27.40;99.90;;;;;;5004280;28;20033;-54
2022/08/09 09:18:35;;;;;;;7.38;6.60;;;27.10;99.90;;;;;;5019470;28;20032;-54
2022/08/09 09:21:01;;;;;;;8.25;6.78;;;;;;;;;;5026181;28;20117;-52
2022/08/09 09:23:45;;;;;;;7.97;6.93;;;;;;;;;;5023568;28;20537;-53
2022/08/09 09:26:12;;;;;;;9.02;6.18;;;27.90;99.90;;;;;;5024559;28;20548;-52
2022/08/09 09:28:46;;;;;;;10.05;7.03;;;27.90;99.90;;;;;;5019931;28;20485;-55
2022/08/09 09:31:16;;;;;;;8.10;7.05;;;;;;;;;;5023883;28;20092;-54
2022/08/09 09:33:43;;;;;;;8.18;7.05;;;;;;;;;;5021972;28;20037;-55
2022/08/09 09:36:11;;;;;;;8.48;6.47;;;;;;;;;;5022585;28;20449;-53
2022/08/09 09:38:56;;;;;;;8.82;7.40;;;27.90;99.90;;;;;;5020466;28;20482;-54
2022/08/09 09:41:26;;;;;;;7.50;6.47;;;;;;;;;;5024032;28;20030;-54
2022/08/09 09:43:57;;;;;;;8.95;7.85;;;28.10;99.90;;;;;;5024379;28;20507;-55
2022/08/09 09:46:31;;;;;;;7.97;6.00;;;28.10;99.90;;;;;;5024748;28;20148;-53
2022/08/09 09:49:01;;;;;;;7.70;6.90;;;28.20;99.90;;;;;;5023183;28;20110;-55
2022/08/09 09:51:28;;;;;;;8.40;7.05;;;;;;;;;;5017027;28;20045;-53
2022/08/09 09:54:10;;;;;;;8.90;7.35;;;28.40;99.90;;;;;;5024273;28;20029;-56
2022/08/09 09:56:42;;;;;;;9.35;6.85;;;28.50;99.90;;;;;;5020681;28;20618;-53
2022/08/09 09:59:09;;;;;;;9.55;7.65;;;28.30;99.90;;;;;;5021082;28;20053;-53
2022/08/09 10:01:36;;;;;;;7.55;6.63;;;27.90;99.90;;;;;;5021011;28;20033;-54
2022/08/09 10:04:02;;;;;;;10.82;7.90;;;27.80;99.90;;;;;;5019883;28;20049;-55
2022/08/09 10:06:39;;;;;;;8.40;7.47;;;28.00;99.90;;;;;;5020695;28;20542;-55
2022/08/09 10:21:09;;;;;;;9.15;6.97;;;29.00;99.90;;;;;;5075813;28;20387;-55
2022/08/09 10:23:36;;;;;;;16.15;8.75;;;29.00;99.90;;;;;;5066500;28;20064;-55
2022/08/09 10:26:03;;;;;;;9.52;6.97;;;29.00;99.90;;;;;;5062129;28;20513;-52
2022/08/09 10:28:31;;;;;;;8.85;7.95;;;29.10;99.90;;;;;;5046524;28;20504;-57
2022/08/09 10:30:57;;;;;;;8.40;7.50;;;29.20;99.90;;;;;;5064167;28;20033;-52
2022/08/09 10:33:24;;;;;;;11.18;7.95;;;29.20;99.90;;;;;;5057277;28;20021;-54
2022/08/09 10:35:50;;;;;;;9.05;8.15;;;29.10;99.90;;;;;;5043974;28;20039;-51
2022/08/09 10:38:17;;;;;;;13.07;8.18;;;29.00;99.90;;;;;;5056729;28;20029;-51
2022/08/09 10:40:46;;;;;;;9.65;7.97;;;29.00;99.90;;;;;;5057020;28;20124;-53
2022/08/09 10:43:12;;;;;;;9.00;8.10;;;29.20;99.90;;;;;;5054807;28;20096;-62
2022/08/09 10:45:42;;;;;;;8.10;7.35;;;29.10;99.90;;;;;;5061994;28;20124;-56
2022/08/09 10:48:19;;;;;;;10.18;8.02;;;29.00;99.90;;;;;;5057450;28;20438;-51
2022/08/09 10:53:58;;;;;;;8.85;7.65;;;28.90;99.90;;;;;;5059017;28;20047;-50
2022/08/09 10:56:29;;;;;;;9.68;8.27;;;28.50;99.90;;;;;;5054915;28;20025;-54
2022/08/09 10:58:57;;;;;;;11.95;7.25;;;28.30;99.90;;;;;;5023123;28;20038;-52
2022/08/09 11:01:32;;;;;;;12.43;8.68;;;28.50;99.90;;;;;;5020649;28;20034;-57
2022/08/09 11:04:25;;;;;;;10.07;8.48;;;29.00;99.90;;;;;;5024476;28;20580;-49
2022/08/09 11:07:02;;;;;;;11.32;8.45;;;29.00;99.90;;;;;;4961834;28;20038;-53
2022/08/09 11:09:37;;;;;;;8.93;8.13;;;29.30;99.90;;;;;;4965305;28;20058;-55
2022/08/09 11:12:16;;;;;;;9.23;7.78;;;29.60;99.90;;;;;;4966265;28;20070;-50
2022/08/09 11:14:55;;;;;;;8.73;7.45;;;29.60;99.90;;;;;;4968205;28;20143;-49
2022/08/09 11:17:21;;;;;;;7.45;6.75;;;;;;;;;;4965800;28;20703;-50
2022/08/09 11:19:53;;;;;;;8.80;7.70;;;;;;;;;;4956883;28;20044;-46
2022/08/09 11:22:19;;;;;;;14.80;8.02;;;;;;;;;;4939431;29;20105;-48
2022/08/09 11:25:02;;;;;;;9.05;8.25;;;;;;;;;;4941476;29;20136;-49
2022/08/09 11:27:31;;;;;;;9.80;8.43;;;;;;;;;;4936695;29;20087;-48
2022/08/09 11:29:58;;;;;;;9.48;7.20;;;;;;;;;;4930802;28;20113;-53
2022/08/09 11:32:46;;;;;;;13.10;7.85;;;29.20;99.90;;;;;;4991145;28;20061;-48
2022/08/09 11:35:40;;;;;;;8.80;7.85;;;29.30;99.90;;;;;;4993527;28;20482;-55
2022/08/09 11:38:17;;;;;;;10.25;7.40;;;29.30;99.90;;;;;;4981127;28;20516;-53
2022/08/09 11:40:43;;;;;;;9.27;8.38;;;29.20;99.90;;;;;;4992482;28;20042;-53
2022/08/09 11:43:33;;;;;;;9.50;7.65;;;28.80;99.90;;;;;;5008293;28;20045;-58
2022/08/09 11:46:01;;;;;;;9.48;8.45;;;28.60;99.90;;;;;;5041062;28;20040;-49
2022/08/09 11:48:48;;;;;;;10.13;7.78;;;28.70;99.90;;;;;;4967540;28;20037;-49
2022/08/09 11:51:14;;;;;;;9.38;8.38;;;28.60;99.90;;;;;;5018828;28;20038;-52
2022/08/09 11:53:41;;;;;;;9.63;7.72;;;28.60;99.90;;;;;;5002177;28;20049;-50
2022/08/09 11:56:13;;;;;;;10.80;8.77;;;28.60;99.90;;;;;;5020238;28;20037;-47
2022/08/09 11:58:39;;;;;;;;;;;28.60;99.90;;;;;;5024087;28;20044;-50
2022/08/09 12:01:05;;;;;;;9.48;8.27;;;28.60;99.90;;;;;;5024921;28;19909;-50
2022/08/09 12:03:31;;;;;;;10.07;9.05;;;28.00;99.90;;;;;;5024132;28;20049;-47
2022/08/09 12:05:59;;;;;;;8.98;8.13;;;28.60;99.90;;;;;;5021647;28;20083;-49
2022/08/09 12:08:27;;;;;;;10.48;8.40;;;28.30;99.90;;;;;;5023403;28;20116;-50
2022/08/09 12:10:58;;;;;;;10.50;9.40;;;28.60;99.90;;;;;;5010320;28;20045;-49
2022/08/09 12:13:30;;;;;;;;;;;28.20;99.90;;;;;;5025842;28;20524;-49
2022/08/09 12:16:00;;;;;;;8.45;7.65;;;28.70;99.90;;;;;;5014996;28;19984;-50
2022/08/09 12:18:26;;;;;;;9.80;8.88;;;28.20;99.90;;;;;;5027824;28;20037;-50
2022/08/09 12:20:52;;;;;;;9.35;8.35;;;28.30;99.90;;;;;;5044986;28;20577;-48
2022/08/09 12:23:18;;;;;;;11.57;8.32;;;28.70;99.90;;;;;;5043107;28;20145;-49
2022/08/09 12:25:48;;;;;;;11.52;8.90;;;28.40;99.90;;;;;;5042056;28;20121;-50
2022/08/09 12:28:17;;;;;;;8.60;7.80;;;28.10;99.90;;;;;;5044150;28;20043;-49
2022/08/09 12:30:43;;;;;;;8.70;7.90;;;28.50;99.90;;;;;;5049621;28;20053;-49
2022/08/09 12:33:12;;;;;;;10.00;8.13;;;28.10;99.90;;;;;;5046973;28;20036;-48
2022/08/09 12:35:39;;;;;;;8.93;8.13;;;28.00;99.90;;;;;;5045715;28;20065;-48
2022/08/09 12:38:17;;;;;;;9.93;8.90;;;27.70;99.90;;;;;;5045979;28;20028;-49
2022/08/09 12:40:45;;;;;;;10.10;9.05;;;27.50;99.90;;;;;;5047680;28;20599;-49
2022/08/09 12:43:12;;;;;;;11.18;10.07;;;27.40;99.90;;;;;;5046128;28;20102;-49
2022/08/09 12:45:39;;;;;;;12.40;9.68;;;27.20;99.90;;;;;;5045425;28;20376;-48
2022/08/09 12:48:06;;;;;;;9.80;8.90;;;27.00;99.90;;;;;;5043842;28;20048;-50
2022/08/09 12:50:34;;;;;;;10.23;9.18;;;27.20;99.90;;;;;;5048515;28;20049;-50
2022/08/09 12:53:00;;;;;;;9.23;8.30;;;27.30;99.90;;;;;;5047038;28;20025;-50
2022/08/09 12:55:29;;;;;;;9.43;8.45;;;27.20;99.90;;;;;;5047087;28;20459;-50
2022/08/09 12:57:55;;;;;;;9.88;8.98;;;27.30;99.90;;;;;;5040510;28;20036;-51
2022/08/09 13:00:22;;;;;;;10.43;9.35;;;27.00;99.90;;;;;;5045196;28;20028;-49
2022/08/09 13:02:52;;;;;;;9.68;8.65;;;26.90;99.90;;;;;;5040829;28;20092;-49
2022/08/09 13:05:19;;;;;;;9.10;8.10;;;26.90;99.90;;;;;;5047317;28;20040;-50
2022/08/09 13:08:16;;;;;;;10.95;8.00;;;27.00;99.90;;;;;;5045961;28;20056;-49
2022/08/09 13:10:56;;;;;;;9.15;8.13;;;27.00;99.90;;;;;;5044578;28;20037;-49
2022/08/09 13:13:31;;;;;;;9.85;7.97;;;26.70;99.90;;;;;;5047042;28;20060;-50
2022/08/09 13:15:59;;;;;;;10.88;7.63;;;26.90;99.90;;;;;;5045232;28;20048;-50
2022/08/09 13:18:27;;;;;;;10.40;7.75;;;26.90;99.90;;;;;;5045721;28;20023;-49
2022/08/09 13:20:56;;;;;;;10.00;8.63;;;27.40;99.90;;;;;;5045650;28;20052;-49
2022/08/09 13:23:39;;;;;;;9.05;6.93;;;27.40;99.90;;;;;;5030037;28;20037;-50
2022/08/09 13:26:05;;;;;;;9.85;8.32;;;27.50;99.90;;;;;;5046269;28;20053;-49